Time;durP1;ratioP1;P1;durP2;ratioP2;P2;SDS_P1;SDS_P2;PMS_P1;PMS_P2;Temp;Humidity;BMP_temperature;BMP_pressure;BME280_temperature;BME280_humidity;BME280_pressure;Samples;Min_cycle;Max_cycle;Signal;HPM_P1;HPM_P2
2021/04/10 00:01:07;;;;;;;26.65;14.93;;;;;;;3.55;51.62;100274.52;1719263;82;21151;-43
2021/04/10 00:03:36;;;;;;;24.25;14.83;;;;;;;3.52;51.90;100279.67;1715776;82;21198;-43
2021/04/10 00:06:05;;;;;;;24.20;14.75;;;;;;;3.50;52.39;100283.97;1716486;82;21171;-43
2021/04/10 00:08:33;;;;;;;26.27;15.60;;;;;;;3.50;52.81;100286.11;1724780;82;21147;-43
2021/04/10 00:11:01;;;;;;;24.12;15.40;;;;;;;3.50;52.14;100274.05;1737481;82;21178;-43
2021/04/10 00:13:29;;;;;;;29.42;15.10;;;;;;;3.49;51.83;100271.11;1737426;81;21604;-43
2021/04/10 00:15:57;;;;;;;23.65;14.95;;;;;;;3.47;51.62;100281.89;1746890;81;21103;-43
2021/04/10 00:18:25;;;;;;;26.25;15.83;;;;;;;3.45;51.51;100280.02;1745288;82;21000;-43
2021/04/10 00:20:56;;;;;;;24.95;15.50;;;;;;;3.44;51.54;100278.42;1790446;79;21163;-43
2021/04/10 00:23:25;;;;;;;27.07;15.28;;;;;;;3.43;51.32;100279.53;1790016;79;21561;-43
2021/04/10 00:25:53;;;;;;;24.80;15.55;;;;;;;3.43;51.30;100280.87;1788833;79;21206;-43
2021/04/10 00:28:21;;;;;;;23.87;15.15;;;;;;;3.43;51.32;100288.91;1785318;79;21166;-44
2021/04/10 00:30:50;;;;;;;25.62;15.55;;;;;;;3.44;51.30;100285.13;1790415;79;21032;-43
2021/04/10 00:33:18;;;;;;;23.95;14.80;;;;;;;3.43;51.14;100277.66;1779977;79;21561;-43
2021/04/10 00:35:46;;;;;;;27.00;14.68;;;;;;;3.45;51.00;100277.34;1794147;79;21343;-43
2021/04/10 00:38:14;;;;;;;24.72;14.83;;;;;;;3.44;51.13;100278.42;1720320;82;21633;-43
2021/04/10 00:40:42;;;;;;;22.27;14.53;;;;;;;3.43;51.12;100279.00;1787407;79;21083;-43
2021/04/10 00:43:11;;;;;;;25.27;15.35;;;;;;;3.42;51.07;100277.39;1774379;79;21171;-43
2021/04/10 00:45:42;;;;;;;26.60;14.50;;;;;;;3.38;51.18;100280.41;1731639;82;21170;-44
2021/04/10 00:48:10;;;;;;;24.23;15.48;;;;;;;3.35;51.22;100277.48;1782155;79;21187;-44
2021/04/10 00:50:38;;;;;;;24.10;15.50;;;;;;;3.35;51.39;100278.82;1776662;79;21442;-43
2021/04/10 00:53:06;;;;;;;26.85;15.55;;;;;;;3.37;51.33;100283.36;1779033;79;21151;-43
2021/04/10 00:55:34;;;;;;;25.32;15.50;;;;;;;3.10;51.34;100243.78;1778873;79;21150;-44
2021/04/10 00:58:02;;;;;;;27.13;15.72;;;;;;;3.34;51.40;100274.00;1795804;79;21534;-43
2021/04/10 01:00:30;;;;;;;24.72;15.08;;;;;;;3.34;51.32;100276.68;1779998;79;21186;-43
2021/04/10 01:02:58;;;;;;;25.85;15.93;;;;;;;3.35;51.32;100278.82;1771857;79;22229;-43
2021/04/10 01:05:27;;;;;;;23.92;15.90;;;;;;;3.34;51.27;100284.72;1741292;82;21203;-43
2021/04/10 01:07:54;;;;;;;25.00;16.23;;;;;;;3.35;51.34;100284.19;1722524;82;21166;-43
2021/04/10 01:10:23;;;;;;;22.75;15.25;;;;;;;3.32;51.39;100278.88;1789784;79;21181;-43
2021/04/10 01:13:25;;;;;;;28.00;15.95;;;;;;;3.31;51.41;100276.47;1715508;82;21800;-43
2021/04/10 01:16:02;;;;;;;26.20;16.40;;;;;;;3.31;51.44;100280.48;1777477;79;21202;-43
2021/04/10 01:18:43;;;;;;;23.80;15.10;;;;;;;3.23;51.48;100275.78;1792484;79;21387;-43
2021/04/10 01:21:29;;;;;;;23.25;14.93;;;;;;;3.17;51.62;100277.73;1787379;79;21159;-43
2021/04/10 01:24:44;;;;;;;23.20;14.60;;;;;;;3.15;51.67;100280.45;1787076;79;22123;-43
2021/04/10 01:27:39;;;;;;;23.05;14.13;;;;;;;3.13;51.69;100275.91;1735130;82;21185;-43
2021/04/10 01:30:18;;;;;;;23.87;14.80;;;;;;;3.13;51.67;100278.05;1739926;82;22528;-43
2021/04/10 01:33:04;;;;;;;26.65;14.70;;;;;;;3.10;51.80;100275.16;1782045;79;22284;-43
2021/04/10 01:35:39;;;;;;;27.25;14.15;;;;;;;3.13;51.70;100273.23;1772465;79;21609;-43
2021/04/10 01:38:19;;;;;;;24.07;14.55;;;;;;;3.17;51.67;100276.92;1809357;78;22782;-43
2021/04/10 01:40:50;;;;;;;23.45;15.18;;;;;;;3.15;51.63;100271.08;1785489;78;21027;-42
2021/04/10 01:43:19;;;;;;;21.95;14.58;;;;;;;3.15;51.55;100273.19;1805080;77;22107;-42
2021/04/10 01:45:48;;;;;;;23.02;14.35;;;;;;;3.17;51.64;100279.61;1809907;77;21035;-42
2021/04/10 01:48:16;;;;;;;22.32;14.05;;;;;;;3.15;51.52;100277.20;1748491;82;21603;-42
2021/04/10 01:50:44;;;;;;;23.40;14.25;;;;;;;3.15;51.56;100277.20;1753780;80;21174;-42
2021/04/10 01:53:13;;;;;;;27.95;15.48;;;;;;;3.14;51.55;100274.83;1671118;83;21168;-42
2021/04/10 01:55:42;;;;;;;23.18;14.40;;;;;;;3.12;51.63;100276.99;1769882;80;21493;-42
2021/04/10 01:58:11;;;;;;;;;;;;;;;3.10;51.65;100282.62;1771211;80;21865;-43
2021/04/10 02:00:41;;;;;;;22.22;14.10;;;;;;;3.13;51.67;100278.59;1754609;80;20223;-42
2021/04/10 02:03:12;;;;;;;22.27;14.93;;;;;;;3.00;51.92;100279.53;1760001;80;21697;-42
2021/04/10 02:05:41;;;;;;;23.22;15.50;;;;;;;3.02;51.88;100280.05;1770690;80;22227;-42
2021/04/10 02:08:19;;;;;;;23.55;14.25;;;;;;;3.03;51.89;100283.00;1733828;80;21210;-42
2021/04/10 02:10:48;;;;;;;24.67;15.15;;;;;;;2.98;51.98;100281.72;1738815;82;21181;-42
2021/04/10 02:13:18;;;;;;;24.35;14.60;;;;;;;2.97;52.06;100277.44;1736810;80;21193;-42
2021/04/10 02:15:52;;;;;;;23.60;15.03;;;;;;;2.95;52.00;100279.59;1756811;80;21016;-43
2021/04/10 02:18:22;;;;;;;23.25;14.38;;;;;;;2.94;52.11;100282.04;1777652;80;21162;-42
2021/04/10 02:20:52;;;;;;;22.05;14.28;;;;;;;2.94;52.08;100278.02;1773435;80;21197;-42
2021/04/10 02:23:21;;;;;;;20.05;13.98;;;;;;;2.96;52.08;100283.07;1740877;81;21161;-42
2021/04/10 02:25:51;;;;;;;22.95;13.85;;;;;;;2.93;52.07;100279.09;1757532;80;28377;-42
2021/04/10 02:28:20;;;;;;;21.27;13.65;;;;;;;2.91;52.10;100273.76;1746584;80;21628;-42
2021/04/10 02:30:48;;;;;;;19.67;13.15;;;;;;;2.91;52.13;100283.94;1768656;80;21719;-42
2021/04/10 02:33:34;;;;;;;20.40;14.70;;;;;;;2.91;52.11;100272.42;1746657;80;21457;-42
2021/04/10 02:36:03;;;;;;;23.90;14.23;;;;;;;2.90;52.15;100278.88;1758590;80;21128;-42
2021/04/10 02:38:33;;;;;;;19.45;12.68;;;;;;;2.85;52.19;100277.06;1744110;80;21175;-42
2021/04/10 02:41:13;;;;;;;22.27;13.58;;;;;;;2.85;52.18;100286.44;1718781;81;21661;-43
2021/04/10 02:43:45;;;;;;;19.45;13.30;;;;;;;2.84;52.34;100283.50;1753931;80;21673;-42
2021/04/10 02:46:15;;;;;;;21.20;13.55;;;;;;;2.82;52.37;100288.86;1749032;80;22209;-42
2021/04/10 02:49:01;;;;;;;20.25;13.45;;;;;;;2.79;52.41;100286.23;1732444;80;26681;-42
2021/04/10 02:51:40;;;;;;;22.10;12.90;;;;;;;2.73;52.58;100280.67;1734544;82;21241;-42
2021/04/10 02:54:09;;;;;;;18.92;12.53;;;;;;;2.71;52.60;100282.82;1737766;80;21124;-42
2021/04/10 02:56:42;;;;;;;19.17;12.95;;;;;;;2.72;52.55;100281.74;1735469;82;22183;-42
2021/04/10 02:59:10;;;;;;;18.48;12.65;;;;;;;2.73;52.52;100290.04;1746893;80;21252;-42
2021/04/10 03:01:38;;;;;;;17.85;12.75;;;;;;;2.72;52.56;100284.42;1728696;81;21225;-42
2021/04/10 03:04:06;;;;;;;20.37;12.58;;;;;;;2.73;52.58;100278.53;1741211;80;21654;-42
2021/04/10 03:06:34;;;;;;;21.50;12.50;;;;;;;2.76;52.51;100281.42;1744578;81;21159;-42
2021/04/10 03:09:06;;;;;;;21.45;13.35;;;;;;;2.75;52.53;100279.85;1748060;81;21147;-42
2021/04/10 03:11:34;;;;;;;18.85;11.97;;;;;;;2.76;52.55;100284.10;1735950;81;21460;-42
2021/04/10 03:14:06;;;;;;;18.60;12.80;;;;;;;2.74;52.51;100286.28;1744607;81;21630;-43
2021/04/10 03:16:34;;;;;;;19.20;12.70;;;;;;;2.72;52.59;100291.11;1749288;81;21404;-42
2021/04/10 03:19:06;;;;;;;17.85;11.80;;;;;;;2.70;52.60;100286.60;1748953;81;21064;-42
2021/04/10 03:21:40;;;;;;;20.25;12.13;;;;;;;2.67;52.67;100287.16;1741953;82;21155;-42
2021/04/10 03:24:10;;;;;;;19.77;12.85;;;;;;;2.68;52.69;100291.44;1717127;81;22298;-42
2021/04/10 03:26:38;;;;;;;19.73;13.08;;;;;;;2.63;52.77;100290.14;1776310;79;21697;-42
2021/04/10 03:29:08;;;;;;;21.80;12.70;;;;;;;2.66;52.83;100293.61;1777744;79;21207;-42
2021/04/10 03:31:38;;;;;;;21.20;12.20;;;;;;;2.64;52.85;100291.75;1792846;79;21206;-42
2021/04/10 03:34:07;;;;;;;18.90;13.03;;;;;;;2.62;52.86;100296.58;1756163;79;21135;-43
2021/04/10 03:36:35;;;;;;;19.23;12.13;;;;;;;2.60;53.04;100294.73;1798525;79;22388;-43
2021/04/10 03:39:04;;;;;;;21.97;13.15;;;;;;;2.60;52.98;100294.20;1753551;80;21648;-42
2021/04/10 03:41:35;;;;;;;19.05;12.80;;;;;;;2.61;53.09;100295.77;1780459;78;21010;-42
2021/04/10 03:44:05;;;;;;;18.48;12.43;;;;;;;2.61;52.99;100292.33;1747595;80;21132;-42
2021/04/10 03:46:37;;;;;;;20.90;13.70;;;;;;;2.61;53.13;100292.33;1780175;80;21162;-42
2021/04/10 03:49:07;;;;;;;18.50;12.75;;;;;;;2.67;53.05;100293.05;1744666;82;21203;-42
2021/04/10 03:51:35;;;;;;;18.12;12.58;;;;;;;2.72;52.97;100300.48;1779965;78;21482;-42
2021/04/10 03:54:05;;;;;;;19.57;12.95;;;;;;;2.79;52.92;100299.62;1763730;78;21015;-42
2021/04/10 03:56:36;;;;;;;18.77;12.70;;;;;;;2.82;52.84;100300.91;1779889;80;21182;-42
2021/04/10 03:59:05;;;;;;;17.42;12.23;;;;;;;2.85;52.72;100299.83;1742923;78;21162;-42
2021/04/10 04:01:35;;;;;;;19.50;12.95;;;;;;;2.85;52.72;100298.48;1778962;78;21275;-42
2021/04/10 04:04:04;;;;;;;18.77;12.20;;;;;;;2.88;52.70;100305.14;1780114;80;21665;-42
2021/04/10 04:06:32;;;;;;;21.60;12.58;;;;;;;2.87;52.86;100298.18;1779952;80;21395;-42
2021/04/10 04:09:01;;;;;;;18.37;11.50;;;;;;;2.91;52.80;100308.03;1780438;78;21149;-42
2021/04/10 04:11:29;;;;;;;19.37;13.05;;;;;;;2.94;52.73;100300.79;1779983;78;21413;-42
2021/04/10 04:13:57;;;;;;;18.85;13.00;;;;;;;2.97;52.70;100308.78;1776333;78;21373;-42
2021/04/10 04:16:26;;;;;;;19.55;13.20;;;;;;;2.97;52.77;100304.77;1775168;80;21140;-42
2021/04/10 04:18:55;;;;;;;17.87;12.23;;;;;;;3.00;52.79;100304.98;1779860;80;21021;-43
2021/04/10 04:21:22;;;;;;;18.67;13.48;;;;;;;3.02;52.93;100314.08;1779951;78;21105;-42
2021/04/10 04:23:50;;;;;;;21.30;14.30;;;;;;;3.03;53.05;100312.47;1785098;78;21197;-42
2021/04/10 04:26:20;;;;;;;21.07;14.00;;;;;;;3.04;53.21;100314.06;1770331;78;21184;-43
2021/04/10 04:28:48;;;;;;;22.48;14.18;;;;;;;3.06;53.28;100307.06;1762231;78;21171;-42
2021/04/10 04:31:17;;;;;;;21.30;14.07;;;;;;;3.06;53.47;100306.52;1773157;78;21151;-42
2021/04/10 04:33:45;;;;;;;20.27;13.35;;;;;;;3.11;53.58;100304.86;1767768;78;21179;-42
2021/04/10 04:36:13;;;;;;;22.15;13.55;;;;;;;3.13;53.55;100307.53;1782981;78;21114;-42
2021/04/10 04:38:42;;;;;;;20.75;13.50;;;;;;;3.19;53.53;100305.58;1752161;80;21198;-42
2021/04/10 04:41:10;;;;;;;18.50;12.95;;;;;;;3.28;53.69;100306.53;1775361;80;21162;-42
2021/04/10 04:43:38;;;;;;;19.15;13.38;;;;;;;3.34;53.70;100314.20;1755274;80;21194;-43
2021/04/10 04:46:06;;;;;;;19.98;13.05;;;;;;;3.39;53.64;100308.78;1781383;80;21166;-42
2021/04/10 04:48:34;;;;;;;16.85;11.80;;;;;;;3.46;53.66;100308.43;1779924;80;21123;-42
2021/04/10 04:51:02;;;;;;;20.62;13.18;;;;;;;3.53;53.74;100308.88;1771918;79;22313;-42
2021/04/10 04:53:30;;;;;;;21.15;13.30;;;;;;;3.59;53.67;100310.38;1771037;80;21197;-42
2021/04/10 04:55:58;;;;;;;20.97;13.75;;;;;;;3.64;53.75;100299.59;1778357;80;21186;-42
2021/04/10 04:58:26;;;;;;;22.15;14.13;;;;;;;3.70;53.70;100296.30;1747272;82;21183;-42
2021/04/10 05:00:54;;;;;;;19.00;13.08;;;;;;;3.72;53.63;100294.93;1747457;82;21483;-42
2021/04/10 05:03:22;;;;;;;18.27;12.78;;;;;;;3.77;53.62;100298.88;1773092;80;23481;-42
2021/04/10 05:05:50;;;;;;;20.72;12.78;;;;;;;3.83;53.59;100292.33;1775060;80;21457;-42
2021/04/10 05:08:18;;;;;;;19.00;12.68;;;;;;;3.92;53.36;100293.25;1757654;80;21146;-42
2021/04/10 05:10:46;;;;;;;20.30;13.70;;;;;;;4.02;53.23;100296.89;1765065;80;21173;-42
2021/04/10 05:13:14;;;;;;;21.17;14.20;;;;;;;4.10;53.16;100298.90;1778262;80;21154;-42
2021/04/10 05:15:43;;;;;;;19.60;13.03;;;;;;;4.17;52.90;100298.76;1779823;80;21369;-42
2021/04/10 05:18:11;;;;;;;22.42;14.15;;;;;;;4.23;52.83;100298.13;1779897;80;21138;-42
2021/04/10 05:20:39;;;;;;;17.73;12.80;;;;;;;4.29;52.83;100305.02;1779841;80;21162;-42
2021/04/10 05:23:07;;;;;;;20.65;13.50;;;;;;;4.35;52.93;100298.48;1771133;79;21178;-42
2021/04/10 05:25:35;;;;;;;17.05;13.13;;;;;;;4.42;52.82;100297.53;1766634;80;21131;-42
2021/04/10 05:28:04;;;;;;;20.72;13.15;;;;;;;4.51;52.92;100299.78;1754203;80;21182;-42
2021/04/10 05:30:33;;;;;;;20.08;13.90;;;;;;;4.61;53.04;100299.59;1755256;80;20973;-42
2021/04/10 05:33:02;;;;;;;19.07;13.48;;;;;;;4.72;53.21;100309.07;1749979;80;21167;-42
2021/04/10 05:35:30;;;;;;;16.97;12.10;;;;;;;4.83;52.97;100308.88;1749608;80;21615;-42
2021/04/10 05:37:58;;;;;;;20.43;14.33;;;;;;;4.92;53.11;100305.75;1786139;78;21417;-42
2021/04/10 05:40:28;;;;;;;18.02;13.03;;;;;;;5.04;52.73;100314.09;1810442;79;22221;-42
2021/04/10 05:42:57;;;;;;;18.02;13.00;;;;;;;5.15;52.64;100306.88;1782526;80;21446;-42
2021/04/10 05:45:25;;;;;;;17.50;12.10;;;;;;;5.24;52.46;100306.42;1784321;79;21151;-42
2021/04/10 05:47:54;;;;;;;20.62;13.98;;;;;;;5.36;52.48;100299.19;1783172;79;21167;-42
2021/04/10 05:50:22;;;;;;;21.90;13.70;;;;;;;5.46;51.53;100304.36;1785156;78;21163;-42
2021/04/10 05:52:50;;;;;;;17.42;12.07;;;;;;;5.53;51.52;100305.27;1782314;80;21653;-42
2021/04/10 05:55:19;;;;;;;18.30;13.35;;;;;;;5.61;51.76;100302.68;1805641;79;21036;-43
2021/04/10 05:57:47;;;;;;;20.37;13.30;;;;;;;5.72;51.30;100309.15;1807846;79;21181;-42
2021/04/10 06:00:18;;;;;;;17.67;12.58;;;;;;;5.84;51.19;100308.08;1806054;79;21398;-43
2021/04/10 06:02:50;;;;;;;19.27;12.20;;;;;;;5.98;50.80;100307.50;1807157;79;21158;-43
2021/04/10 06:05:19;;;;;;;22.25;13.75;;;;;;;6.10;50.13;100311.77;1787707;78;21440;-43
2021/04/10 06:07:48;;;;;;;18.42;12.23;;;;;;;6.21;49.32;100306.39;1747689;82;21194;-43
2021/04/10 06:10:19;;;;;;;19.80;12.13;;;;;;;6.29;49.45;100309.71;1804916;78;21162;-43
2021/04/10 06:12:48;;;;;;;21.57;13.30;;;;;;;6.36;48.57;100307.91;1801181;78;21511;-43
2021/04/10 06:15:18;;;;;;;19.48;14.00;;;;;;;6.47;49.11;100311.39;1797267;79;21158;-43
2021/04/10 06:17:46;;;;;;;;;;;;;;;6.58;48.85;100309.79;1797732;79;21453;-43
2021/04/10 06:20:16;;;;;;;20.97;12.55;;;;;;;6.68;48.39;100308.95;1786615;79;20255;-43
2021/04/10 06:22:44;;;;;;;22.02;13.50;;;;;;;6.70;48.66;100312.69;1809253;78;21161;-43
2021/04/10 06:25:12;;;;;;;19.90;12.40;;;;;;;6.84;48.25;100321.47;1737450;82;21746;-43
2021/04/10 06:27:40;;;;;;;18.80;12.73;;;;;;;6.98;47.86;100314.86;1765954;80;21749;-43
2021/04/10 06:30:10;;;;;;;20.27;12.23;;;;;;;7.10;47.28;100307.54;1797373;79;22134;-43
2021/04/10 06:32:38;;;;;;;18.45;13.13;;;;;;;7.21;47.51;100310.16;1797178;78;21162;-42
2021/04/10 06:35:08;;;;;;;18.57;13.00;;;;;;;7.34;47.43;100311.96;1789727;79;21602;-42
2021/04/10 06:37:36;;;;;;;17.75;12.07;;;;;;;7.48;46.92;100311.82;1794982;78;21174;-41
2021/04/10 06:40:06;;;;;;;15.18;11.22;;;;;;;7.60;46.94;100305.23;1787526;79;21140;-42
2021/04/10 06:42:34;;;;;;;16.42;11.20;;;;;;;7.75;46.45;100309.38;1779951;79;21191;-42
2021/04/10 06:45:05;;;;;;;16.90;10.85;;;;;;;7.92;45.71;100313.44;1732186;80;21159;-42
2021/04/10 06:47:34;;;;;;;16.52;10.38;;;;;;;8.08;44.73;100301.60;1731314;82;21155;-41
2021/04/10 06:50:05;;;;;;;18.20;10.80;;;;;;;8.20;44.21;100309.28;1756613;80;21183;-42
2021/04/10 06:52:43;;;;;;;17.95;10.65;;;;;;;8.32;44.18;100310.57;1754831;80;21151;-43
2021/04/10 06:55:16;;;;;;;17.40;10.45;;;;;;;8.45;43.90;100306.88;1727171;82;21044;-43
2021/04/10 06:58:03;;;;;;;18.20;10.32;;;;;;;8.57;43.49;100306.98;1744277;81;21203;-43
2021/04/10 07:00:31;;;;;;;21.45;10.28;;;;;;;8.67;43.11;100306.64;1766118;80;21036;-43
2021/04/10 07:03:01;;;;;;;17.70;9.80;;;;;;;8.79;42.53;100308.13;1720602;81;21123;-42
2021/04/10 07:05:30;;;;;;;15.93;9.00;;;;;;;8.90;42.02;100312.63;1755215;80;21171;-42
2021/04/10 07:07:58;;;;;;;18.00;9.88;;;;;;;9.02;42.13;100308.09;1732055;82;21628;-40
2021/04/10 07:10:26;;;;;;;20.00;10.70;;;;;;;9.18;41.40;100312.40;1740222;81;21163;-41
2021/04/10 07:12:54;;;;;;;20.75;10.75;;;;;;;9.32;41.09;100309.45;1738255;81;21340;-41
2021/04/10 07:15:23;;;;;;;19.90;10.10;;;;;;;9.44;40.39;100319.02;1764541;80;21566;-40
2021/04/10 07:17:53;;;;;;;;;;;;;;;9.56;40.78;100310.97;1763036;80;21210;-40
2021/04/10 07:20:29;;;;;;;17.05;8.98;;;;;;;9.72;39.88;100308.47;1717682;82;21201;-40
2021/04/10 07:23:13;;;;;;;20.90;9.33;;;;;;;9.78;39.93;100311.22;1755364;81;21649;-41
2021/04/10 07:25:43;;;;;;;21.12;10.18;;;;;;;9.95;40.09;100317.28;1718827;82;21136;-41
2021/04/10 07:28:29;;;;;;;20.35;10.15;;;;;;;10.18;38.74;100314.23;1774888;79;21153;-42
2021/04/10 07:31:05;;;;;;;23.65;10.08;;;;;;;10.31;38.68;100313.17;1777228;79;21554;-42
2021/04/10 07:33:38;;;;;;;20.37;8.48;;;;;;;10.48;38.08;100316.25;1787284;79;21550;-42
2021/04/10 07:36:08;;;;;;;16.90;8.83;;;;;;;10.67;38.45;100313.24;1790928;79;21144;-42
2021/04/10 07:38:42;;;;;;;16.07;8.88;;;;;;;10.83;37.51;100314.74;1738087;81;21162;-42
2021/04/10 07:41:18;;;;;;;16.45;8.65;;;;;;;10.95;36.83;100309.31;1741263;82;21154;-42
2021/04/10 07:43:46;;;;;;;14.95;8.75;;;;;;;11.03;36.59;100315.22;1750802;81;21609;-42
2021/04/10 07:46:25;;;;;;;16.57;8.40;;;;;;;11.13;36.62;100311.26;1762631;81;21366;-42
2021/04/10 07:49:11;;;;;;;18.10;8.63;;;;;;;11.23;36.78;100312.92;1751036;81;21202;-42
2021/04/10 07:51:57;;;;;;;16.42;8.18;;;;;;;11.33;36.32;100317.10;1760467;81;21625;-42
2021/04/10 07:54:28;;;;;;;17.05;8.88;;;;;;;11.46;35.85;100315.98;1752263;81;22108;-42
2021/04/10 07:57:03;;;;;;;14.73;8.13;;;;;;;11.61;35.82;100320.70;1763076;81;21150;-42
2021/04/10 07:59:38;;;;;;;13.53;7.80;;;;;;;11.72;35.22;100316.39;1763821;81;21386;-42
2021/04/10 08:02:10;;;;;;;15.38;8.58;;;;;;;11.78;34.34;100314.80;1715203;81;21641;-42
2021/04/10 08:04:42;;;;;;;12.45;7.67;;;;;;;11.83;34.45;100315.35;1732200;81;21194;-42
2021/04/10 08:07:12;;;;;;;14.65;8.60;;;;;;;11.91;34.65;100310.93;1743464;81;21182;-42
2021/04/10 08:09:40;;;;;;;12.95;8.15;;;;;;;12.04;33.99;100324.13;1770534;81;21186;-42
2021/04/10 08:12:11;;;;;;;18.17;8.18;;;;;;;12.15;34.59;100308.88;1743631;81;21206;-42
2021/04/10 08:14:44;;;;;;;13.60;7.95;;;;;;;12.26;34.45;100307.82;1764369;81;21206;-42
2021/04/10 08:17:13;;;;;;;13.08;7.72;;;;;;;12.40;34.52;100316.36;1756593;81;21118;-42
2021/04/10 08:19:42;;;;;;;11.33;6.97;;;;;;;12.39;33.74;100284.86;1766867;81;21170;-42
2021/04/10 08:22:12;;;;;;;15.40;7.28;;;;;;;12.70;33.27;100295.55;1742948;81;22164;-42
2021/04/10 08:24:43;;;;;;;12.68;7.03;;;;;;;12.86;31.77;100305.88;1729714;81;21280;-42
2021/04/10 08:27:13;;;;;;;13.48;7.62;;;;;;;12.93;31.73;100292.43;1743739;81;21050;-42
2021/04/10 08:29:43;;;;;;;10.20;6.30;;;;;;;12.96;31.93;100293.11;1722833;81;21333;-42
2021/04/10 08:32:12;;;;;;;15.65;6.92;;;;;;;12.97;31.63;100299.54;1741691;81;21652;-42
2021/04/10 08:34:40;;;;;;;14.75;7.55;;;;;;;13.04;31.60;100296.20;1771619;81;21183;-42
2021/04/10 08:37:09;;;;;;;11.43;7.28;;;;;;;13.13;31.11;100291.39;1714944;81;21281;-42
2021/04/10 08:39:43;;;;;;;12.65;6.33;;;;;;;13.20;31.01;100296.23;1768356;81;22060;-42
2021/04/10 08:42:13;;;;;;;9.28;6.00;;;;;;;13.21;30.63;100291.80;1733672;81;21178;-42
2021/04/10 08:44:41;;;;;;;10.53;6.53;;;;;;;13.29;30.40;100295.46;1726592;81;21605;-42
2021/04/10 08:47:10;;;;;;;13.03;6.75;;;;;;;13.38;29.59;100294.13;1779006;79;21464;-42
2021/04/10 08:49:45;;;;;;;11.63;6.53;;;;;;;13.43;30.13;100299.30;1747108;79;21495;-42
2021/04/10 08:52:21;;;;;;;10.93;6.20;;;;;;;13.44;28.72;100291.91;1745543;81;22443;-42
2021/04/10 08:54:50;;;;;;;8.45;6.42;;;;;;;13.42;29.39;100294.19;1759111;81;21170;-42
2021/04/10 08:57:18;;;;;;;9.20;6.40;;;;;;;13.45;29.82;100290.20;1793090;79;21142;-42
2021/04/10 08:59:47;;;;;;;9.63;6.33;;;;;;;13.54;29.66;100279.09;1792625;78;21151;-42
2021/04/10 09:02:21;;;;;;;;;;;;;;;13.71;29.47;100284.70;1787813;79;21194;-42
2021/04/10 09:05:05;;;;;;;8.15;5.83;;;;;;;13.79;28.39;100282.35;1790404;79;20189;-42
2021/04/10 09:07:54;;;;;;;10.08;6.30;;;;;;;13.73;28.86;100281.84;1789452;79;21151;-42
2021/04/10 09:10:31;;;;;;;10.40;6.05;;;;;;;13.93;29.12;100286.73;1759384;81;21190;-42
2021/04/10 09:13:19;;;;;;;10.95;5.90;;;;;;;14.09;28.87;100275.72;1785864;79;21150;-42
2021/04/10 09:15:47;;;;;;;8.73;5.75;;;;;;;14.22;28.56;100273.86;1787224;79;22131;-42
2021/04/10 09:18:16;;;;;;;7.15;4.97;;;;;;;14.28;27.62;100275.13;1804426;79;21146;-42
2021/04/10 09:20:49;;;;;;;9.18;6.03;;;;;;;14.34;28.34;100281.07;1765916;79;20984;-42
2021/04/10 09:23:28;;;;;;;8.60;5.62;;;;;;;14.46;27.90;100276.86;1794201;79;21185;-42
2021/04/10 09:26:14;;;;;;;9.00;5.72;;;;;;;14.58;28.38;100274.51;1793457;79;21155;-42
2021/04/10 09:29:06;;;;;;;8.30;5.58;;;;;;;14.63;27.38;100270.11;1781850;79;22364;-42
2021/04/10 09:31:38;;;;;;;8.45;5.95;;;;;;;14.67;28.10;100266.86;1768829;79;21170;-42
2021/04/10 09:34:48;;;;;;;8.05;6.33;;;;;;;14.78;27.48;100257.70;1777460;79;21595;-42
2021/04/10 09:37:25;;;;;;;11.47;6.43;;;;;;;14.83;28.29;100267.53;1785259;79;21170;-42
2021/04/10 09:40:20;;;;;;;13.05;6.25;;;;;;;14.91;27.20;100262.38;1767864;79;21134;-42
2021/04/10 09:42:54;;;;;;;8.90;5.55;;;;;;;15.00;26.76;100263.52;1757657;80;21623;-42
2021/04/10 09:45:31;;;;;;;8.55;5.58;;;;;;;15.06;26.78;100257.35;1719752;80;21577;-42
2021/04/10 09:48:06;;;;;;;11.75;5.70;;;;;;;15.28;26.81;100259.83;1708410;84;21208;-42
2021/04/10 09:50:42;;;;;;;8.98;6.10;;;;;;;15.51;26.66;100257.05;1747974;80;21565;-42
2021/04/10 09:53:19;;;;;;;10.93;5.92;;;;;;;15.69;26.88;100262.16;1708250;83;21180;-42
2021/04/10 09:55:49;;;;;;;8.78;5.85;;;;;;;15.86;26.66;100256.13;1752932;80;21349;-42
2021/04/10 09:58:19;;;;;;;9.43;6.33;;;;;;;15.97;26.59;100253.52;1746977;80;21201;-43
2021/04/10 10:00:53;;;;;;;10.03;6.75;;;;;;;16.10;25.71;100252.10;1706575;82;21209;-43
2021/04/10 10:03:23;;;;;;;7.28;5.70;;;;;;;16.22;25.55;100251.82;1770878;80;21895;-42
2021/04/10 10:05:53;;;;;;;10.50;6.30;;;;;;;16.29;25.61;100243.70;1749571;80;21585;-43
2021/04/10 10:08:23;;;;;;;9.75;6.12;;;;;;;16.23;25.39;100247.92;1773335;80;21385;-43
2021/04/10 10:10:55;;;;;;;8.50;5.70;;;;;;;16.26;25.42;100243.09;1759319;80;21185;-43
2021/04/10 10:13:31;;;;;;;7.60;5.45;;;;;;;16.42;25.61;100223.09;1768156;80;20929;-43
2021/04/10 10:15:58;;;;;;;11.60;6.70;;;;;;;16.66;25.45;100228.61;1757797;80;21182;-43
2021/04/10 10:18:31;;;;;;;9.63;6.20;;;;;;;16.71;24.82;100231.57;1700327;83;21211;-43
2021/04/10 10:21:14;;;;;;;10.23;6.47;;;;;;;16.72;24.79;100222.20;1748155;80;21361;-43
2021/04/10 10:23:53;;;;;;;8.63;5.90;;;;;;;16.85;24.42;100224.25;1710435;82;21176;-43
2021/04/10 10:26:35;;;;;;;7.87;5.80;;;;;;;17.00;24.28;100213.39;1707072;82;21353;-43
2021/04/10 10:29:10;;;;;;;11.38;6.30;;;;;;;16.99;23.99;100210.47;1723157;82;21201;-43
2021/04/10 10:31:43;;;;;;;8.83;5.70;;;;;;;17.06;24.61;100220.09;1755678;80;21174;-43
2021/04/10 10:34:15;;;;;;;8.90;5.70;;;;;;;17.22;24.30;100212.37;1769724;80;21305;-43
2021/04/10 10:36:45;;;;;;;9.53;5.90;;;;;;;17.29;24.20;100220.61;1774290;80;21253;-43
2021/04/10 10:39:38;;;;;;;9.33;6.20;;;;;;;17.31;24.00;100219.66;1774443;79;21575;-43
2021/04/10 10:42:07;;;;;;;10.88;6.60;;;;;;;17.32;24.45;100225.34;1768945;79;21011;-43
2021/04/10 10:44:36;;;;;;;9.93;6.30;;;;;;;17.25;23.90;100206.11;1758297;79;21180;-43
2021/04/10 10:47:07;;;;;;;;;;;;;;;17.32;24.60;100213.80;1758074;79;21360;-43
2021/04/10 10:49:35;;;;;;;8.85;5.80;;;;;;;17.44;24.31;100203.66;1788455;79;20546;-43
2021/04/10 10:52:04;;;;;;;13.20;6.28;;;;;;;17.34;23.88;100200.48;1767206;79;21630;-43
2021/04/10 10:54:38;;;;;;;10.13;6.10;;;;;;;17.28;23.62;100198.51;1762184;81;21119;-43
2021/04/10 10:59:16;;;;;;;9.05;6.05;;;;;;;17.49;24.20;100194.48;1833836;78;22462;-42
2021/04/10 11:01:44;;;;;;;10.38;6.28;;;;;;;17.62;23.66;100197.09;1805265;79;20968;-42
2021/04/10 11:04:22;;;;;;;7.22;5.70;;;;;;;17.83;23.48;100190.91;1795625;79;21481;-42
2021/04/10 11:06:52;;;;;;;10.43;5.50;;;;;;;17.97;22.96;100183.29;1775689;80;21059;-42
2021/04/10 11:09:29;;;;;;;8.25;5.80;;;;;;;18.11;22.86;100185.47;1774945;79;21027;-43
2021/04/10 11:12:01;;;;;;;9.95;6.05;;;;;;;18.15;22.61;100193.73;1794153;79;21047;-43
2021/04/10 11:14:34;;;;;;;10.38;6.22;;;;;;;18.19;22.67;100189.81;1775426;80;21151;-43
2021/04/10 11:17:04;;;;;;;7.28;5.53;;;;;;;18.22;22.51;100190.40;1775397;80;21358;-43
2021/04/10 11:19:38;;;;;;;9.38;5.85;;;;;;;18.23;22.94;100185.70;1775183;80;20984;-43
2021/04/10 11:22:08;;;;;;;8.98;5.92;;;;;;;18.35;22.66;100179.80;1797886;79;21025;-43
2021/04/10 11:24:51;;;;;;;7.55;5.35;;;;;;;18.53;22.03;100179.27;1806345;79;21148;-43
2021/04/10 11:27:25;;;;;;;8.48;5.62;;;;;;;18.70;22.01;100171.39;1805915;79;21170;-43
2021/04/10 11:30:03;;;;;;;9.03;6.22;;;;;;;19.03;21.88;100165.44;1795612;79;21356;-43
2021/04/10 11:32:42;;;;;;;9.15;6.40;;;;;;;19.39;21.69;100175.16;1775247;80;21202;-43
2021/04/10 11:35:21;;;;;;;9.90;6.15;;;;;;;19.49;21.32;100167.48;1775396;80;21161;-43
2021/04/10 11:37:53;;;;;;;9.80;5.42;;;;;;;19.53;21.15;100161.38;1775563;79;21034;-43
2021/04/10 11:40:29;;;;;;;8.75;6.00;;;;;;;19.58;21.10;100165.67;1776125;79;21150;-43
2021/04/10 11:43:01;;;;;;;10.63;5.75;;;;;;;19.42;20.55;100163.34;1807330;79;21362;-43